Time;durP1;ratioP1;P1;durP2;ratioP2;P2;SDS_P1;SDS_P2;PMS_P1;PMS_P2;Temp;Humidity;BMP_temperature;BMP_pressure;BME280_temperature;BME280_humidity;BME280_pressure;Samples;Min_cycle;Max_cycle;Signal;HPM_P1;HPM_P2
2023/10/19 00:00:36;;;;;;;26.48;15.82;;;5.80;98.60;;;;;;4922388;29;20020;-62
2023/10/19 00:03:06;;;;;;;30.80;15.80;;;5.80;99.10;;;;;;4921932;29;20517;-62
2023/10/19 00:05:32;;;;;;;28.55;16.77;;;5.90;99.00;;;;;;4922099;29;20365;-62
2023/10/19 00:08:00;;;;;;;31.00;17.45;;;5.90;99.40;;;;;;4921801;29;20035;-63
2023/10/19 00:10:34;;;;;;;30.17;15.75;;;5.80;99.00;;;;;;4921725;29;20531;-62
2023/10/19 00:13:08;;;;;;;33.38;18.17;;;5.80;99.20;;;;;;4929054;29;20325;-62
2023/10/19 00:15:37;;;;;;;27.67;17.80;;;5.90;99.30;;;;;;4929877;28;20111;-62
2023/10/19 00:18:20;;;;;;;26.55;16.05;;;5.90;99.10;;;;;;4927675;29;20492;-62
2023/10/19 00:23:14;;;;;;;29.45;16.98;;;5.90;99.10;;;;;;4931120;29;20063;-62
2023/10/19 00:25:41;;;;;;;27.48;17.35;;;5.90;99.40;;;;;;4929872;29;20103;-62
2023/10/19 00:28:07;;;;;;;31.98;17.38;;;5.90;99.40;;;;;;4921108;29;20035;-63
2023/10/19 00:30:35;;;;;;;31.20;16.67;;;5.90;99.40;;;;;;4923784;29;20043;-62
2023/10/19 00:33:05;;;;;;;29.85;16.65;;;5.90;99.30;;;;;;4924904;29;20032;-63
2023/10/19 00:35:42;;;;;;;30.52;16.63;;;5.90;99.30;;;;;;4924921;29;20527;-62
2023/10/19 00:40:53;;;;;;;25.83;15.63;;;5.90;99.50;;;;;;4923680;29;20034;-62
2023/10/19 00:43:32;;;;;;;28.77;16.52;;;5.90;99.40;;;;;;4925828;29;20023;-62
2023/10/19 00:45:59;;;;;;;28.70;16.77;;;5.90;99.50;;;;;;4932110;28;20479;-62
2023/10/19 00:48:27;;;;;;;26.67;15.98;;;5.90;99.50;;;;;;4929570;29;20026;-61
2023/10/19 00:51:06;;;;;;;29.40;17.40;;;5.90;99.30;;;;;;4928598;28;20474;-62
2023/10/19 00:53:34;;;;;;;35.30;17.08;;;5.90;99.30;;;;;;4925107;29;20024;-62
2023/10/19 00:56:00;;;;;;;30.73;17.50;;;5.80;99.40;;;;;;4924785;29;20031;-62
2023/10/19 00:58:30;;;;;;;26.42;14.82;;;5.80;99.70;;;;;;4924876;29;20024;-62
2023/10/19 01:00:56;;;;;;;27.20;14.93;;;5.80;99.50;;;;;;4925013;29;20028;-62
2023/10/19 01:03:21;;;;;;;30.95;17.98;;;5.80;99.60;;;;;;4925848;29;20401;-63
2023/10/19 01:05:48;;;;;;;31.88;17.45;;;5.80;99.80;;;;;;4917418;29;20024;-61
2023/10/19 01:08:24;;;;;;;29.48;17.70;;;5.90;99.80;;;;;;4924546;29;20027;-62
2023/10/19 01:10:52;;;;;;;29.10;18.00;;;5.80;99.90;;;;;;4924535;29;20095;-62
2023/10/19 01:13:19;;;;;;;32.85;18.25;;;5.80;99.80;;;;;;4924301;29;20039;-62
2023/10/19 01:15:49;;;;;;;30.63;17.92;;;5.80;99.90;;;;;;4924454;29;20035;-62
2023/10/19 01:18:15;;;;;;;32.28;17.73;;;5.80;99.80;;;;;;4924466;29;20043;-62
2023/10/19 01:20:50;;;;;;;34.20;18.67;;;5.90;99.80;;;;;;4932311;29;20055;-62
2023/10/19 01:23:26;;;;;;;32.92;18.75;;;5.90;99.80;;;;;;4930211;28;20887;-63
2023/10/19 01:31:22;;;;;;;34.40;18.55;;;5.90;99.60;;;;;;4931836;28;20055;-62
2023/10/19 01:33:49;;;;;;;32.28;18.20;;;5.90;99.70;;;;;;4926548;29;20028;-62
2023/10/19 01:36:15;;;;;;;34.42;19.98;;;5.90;99.60;;;;;;4924816;28;20548;-62
2023/10/19 01:38:42;;;;;;;29.95;17.17;;;5.90;99.60;;;;;;4932107;28;20059;-62
2023/10/19 01:41:18;;;;;;;29.80;18.00;;;5.90;99.70;;;;;;4928963;29;20069;-62
2023/10/19 01:43:46;;;;;;;29.52;16.23;;;5.90;99.60;;;;;;4924980;29;20075;-63
2023/10/19 01:46:13;;;;;;;36.60;17.23;;;5.90;99.60;;;;;;4925381;29;20044;-63
2023/10/19 01:48:43;;;;;;;26.25;15.27;;;5.90;99.70;;;;;;4928632;28;20035;-62
2023/10/19 01:51:11;;;;;;;30.65;15.68;;;5.80;99.70;;;;;;4931722;29;20039;-62
2023/10/19 01:53:44;;;;;;;29.95;17.20;;;5.80;99.80;;;;;;4929753;29;20052;-63
2023/10/19 01:56:10;;;;;;;30.65;18.75;;;5.80;99.90;;;;;;4926922;28;20039;-63
2023/10/19 01:58:40;;;;;;;30.60;17.25;;;5.90;99.90;;;;;;4933200;28;20024;-62
2023/10/19 02:01:14;;;;;;;29.65;16.90;;;5.90;99.60;;;;;;4930077;28;20126;-62
2023/10/19 02:03:43;;;;;;;28.15;15.95;;;5.80;99.50;;;;;;4930962;29;20019;-63
2023/10/19 02:06:17;;;;;;;29.88;17.98;;;5.90;99.60;;;;;;4925894;28;20019;-63
2023/10/19 02:08:50;;;;;;;32.42;17.73;;;5.90;99.60;;;;;;4919528;29;20102;-62
2023/10/19 02:11:23;;;;;;;31.80;16.23;;;5.80;99.60;;;;;;4931494;28;20070;-62
2023/10/19 02:13:51;;;;;;;28.77;17.67;;;5.80;99.60;;;;;;4927260;29;20035;-62
2023/10/19 02:16:21;;;;;;;30.13;16.88;;;5.80;99.70;;;;;;4928185;29;20491;-62
2023/10/19 02:18:47;;;;;;;30.98;17.88;;;5.80;99.90;;;;;;4930346;28;20119;-62
2023/10/19 02:21:12;;;;;;;32.50;17.55;;;5.80;99.90;;;;;;4933077;28;20110;-62
2023/10/19 02:23:41;;;;;;;30.27;16.60;;;5.80;99.90;;;;;;4930699;28;20061;-62
2023/10/19 02:26:08;;;;;;;32.45;17.88;;;5.80;99.90;;;;;;4928224;28;21026;-62
2023/10/19 02:28:37;;;;;;;28.80;16.33;;;5.80;99.90;;;;;;4928998;29;20030;-63
2023/10/19 02:31:15;;;;;;;37.95;19.35;;;5.80;99.90;;;;;;4928772;28;20118;-62
2023/10/19 02:33:45;;;;;;;34.30;19.35;;;5.80;99.90;;;;;;4923942;28;20027;-62
2023/10/19 02:36:15;;;;;;;31.80;18.65;;;5.80;99.90;;;;;;4918397;29;20171;-62
2023/10/19 02:38:51;;;;;;;30.50;16.75;;;5.80;99.90;;;;;;4922673;29;20028;-62
2023/10/19 02:41:19;;;;;;;34.20;19.75;;;5.90;99.90;;;;;;4920630;29;20503;-62
2023/10/19 02:43:51;;;;;;;34.33;19.02;;;5.90;99.90;;;;;;4923110;29;20032;-61
2023/10/19 02:46:17;;;;;;;31.15;17.02;;;5.90;99.70;;;;;;4923082;29;20024;-62
2023/10/19 02:48:49;;;;;;;28.42;17.67;;;5.90;99.60;;;;;;4919092;29;20436;-62
2023/10/19 02:51:15;;;;;;;30.40;16.52;;;5.90;99.70;;;;;;4923071;29;20039;-61
2023/10/19 02:53:42;;;;;;;29.35;16.30;;;5.90;99.70;;;;;;4930679;28;20027;-61
2023/10/19 02:56:12;;;;;;;34.55;20.58;;;5.90;99.70;;;;;;4928840;29;20024;-61
2023/10/19 02:58:42;;;;;;;32.28;18.38;;;5.90;99.90;;;;;;4923782;28;20032;-61
2023/10/19 03:01:21;;;;;;;29.98;18.33;;;6.00;99.60;;;;;;4923042;29;20032;-61
2023/10/19 03:03:49;;;;;;;30.30;18.25;;;6.00;99.50;;;;;;4929992;28;20028;-62
2023/10/19 03:06:19;;;;;;;36.08;19.17;;;6.00;99.40;;;;;;4929201;29;20020;-61
2023/10/19 03:08:46;;;;;;;38.55;20.92;;;6.00;99.30;;;;;;4926155;28;20290;-62
2023/10/19 03:11:13;;;;;;;32.50;18.98;;;6.00;99.30;;;;;;4930321;29;20121;-61
2023/10/19 03:13:40;;;;;;;33.08;18.25;;;6.00;99.30;;;;;;4928003;29;20049;-62
2023/10/19 03:16:07;;;;;;;34.78;19.70;;;6.00;99.40;;;;;;4929658;28;20027;-61
2023/10/19 03:18:36;;;;;;;37.40;19.98;;;5.90;99.60;;;;;;4928244;29;20400;-62
2023/10/19 03:21:04;;;;;;;36.00;20.42;;;5.90;99.70;;;;;;4931570;28;20095;-61
2023/10/19 03:23:34;;;;;;;34.30;17.88;;;5.90;99.80;;;;;;4928105;29;20043;-62
2023/10/19 03:26:37;;;;;;;41.22;20.85;;;5.90;99.90;;;;;;4924443;28;20032;-61
2023/10/19 03:29:07;;;;;;;38.45;20.40;;;5.90;99.90;;;;;;4921278;28;20119;-61
2023/10/19 03:31:37;;;;;;;37.78;21.10;;;5.90;99.90;;;;;;4923210;28;20043;-61
2023/10/19 03:34:05;;;;;;;33.75;18.17;;;5.90;99.90;;;;;;4925603;29;20058;-61
2023/10/19 03:36:32;;;;;;;31.05;17.90;;;5.80;99.90;;;;;;4924602;29;20042;-62
2023/10/19 03:39:04;;;;;;;35.10;19.15;;;5.80;99.90;;;;;;4923081;28;20035;-61
2023/10/19 03:41:35;;;;;;;33.55;18.15;;;5.80;99.90;;;;;;4930725;29;20039;-61
2023/10/19 03:44:01;;;;;;;31.85;19.05;;;5.70;99.90;;;;;;4928346;28;20069;-61
2023/10/19 03:46:31;;;;;;;32.28;17.63;;;5.70;99.90;;;;;;4923603;29;20488;-61
2023/10/19 03:49:10;;;;;;;31.55;17.70;;;5.70;99.90;;;;;;4926478;29;20570;-61
2023/10/19 03:51:58;;;;;;;34.70;19.00;;;5.70;99.90;;;;;;4931838;28;20062;-61
2023/10/19 03:54:25;;;;;;;34.80;20.60;;;5.70;99.90;;;;;;4921345;29;20501;-62
2023/10/19 03:56:51;;;;;;;33.80;20.00;;;5.70;99.90;;;;;;4931609;29;20056;-61
2023/10/19 03:59:22;;;;;;;35.28;19.77;;;5.70;99.90;;;;;;4933288;28;20120;-62
2023/10/19 04:01:47;;;;;;;31.08;19.77;;;5.70;99.90;;;;;;4930105;29;20030;-62
2023/10/19 04:04:16;;;;;;;32.88;18.90;;;5.60;99.90;;;;;;4930253;28;20023;-61
2023/10/19 04:06:47;;;;;;;36.45;21.02;;;5.60;99.90;;;;;;4931034;29;20792;-61
2023/10/19 04:09:16;;;;;;;36.25;21.05;;;5.60;99.90;;;;;;4929446;29;20070;-61
2023/10/19 04:11:48;;;;;;;37.83;21.35;;;5.60;99.90;;;;;;4935658;29;20058;-61
2023/10/19 04:14:17;;;;;;;35.97;20.60;;;5.60;99.90;;;;;;4926140;29;20026;-61
2023/10/19 04:16:44;;;;;;;41.67;20.75;;;5.60;99.90;;;;;;4924122;29;20030;-62
2023/10/19 04:19:10;;;;;;;37.38;21.35;;;5.60;99.90;;;;;;4925941;29;20028;-62
2023/10/19 04:21:38;;;;;;;39.03;21.58;;;5.60;99.90;;;;;;4932345;29;20024;-62
2023/10/19 04:24:07;;;;;;;34.88;18.58;;;5.60;99.90;;;;;;4930614;28;20043;-62
2023/10/19 04:26:37;;;;;;;36.55;20.33;;;5.70;99.90;;;;;;4933919;29;20022;-62
2023/10/19 04:29:09;;;;;;;34.83;20.02;;;5.60;99.90;;;;;;4931600;29;20024;-62
2023/10/19 04:31:37;;;;;;;41.55;22.88;;;5.60;99.90;;;;;;4929991;29;20070;-62
2023/10/19 04:34:07;;;;;;;37.25;21.13;;;5.60;99.90;;;;;;4928260;29;20032;-61
2023/10/19 04:36:33;;;;;;;35.75;20.88;;;5.70;99.90;;;;;;4931904;28;20039;-61
2023/10/19 04:38:59;;;;;;;35.05;19.77;;;5.70;99.90;;;;;;4930508;29;20024;-62
2023/10/19 04:41:28;;;;;;;33.72;20.75;;;5.70;99.90;;;;;;4931852;28;20108;-61
2023/10/19 04:43:54;;;;;;;35.28;19.27;;;5.60;99.90;;;;;;4927711;28;20106;-62
2023/10/19 04:46:20;;;;;;;35.10;20.10;;;5.60;99.90;;;;;;4931088;29;20024;-62
2023/10/19 04:48:46;;;;;;;35.63;19.88;;;5.60;99.90;;;;;;4933972;29;20019;-62
2023/10/19 04:51:11;;;;;;;40.25;22.17;;;5.70;99.90;;;;;;4933114;28;20039;-62
2023/10/19 04:53:37;;;;;;;35.05;20.38;;;5.60;99.90;;;;;;4929272;29;20102;-62
2023/10/19 04:56:05;;;;;;;35.47;20.38;;;5.60;99.90;;;;;;4931879;28;20028;-62
2023/10/19 04:58:30;;;;;;;36.15;19.85;;;5.60;99.90;;;;;;4933119;28;20035;-62
2023/10/19 05:00:58;;;;;;;43.47;22.67;;;5.60;99.90;;;;;;4930915;28;20115;-62
2023/10/19 05:03:24;;;;;;;38.63;21.48;;;5.60;99.90;;;;;;4922245;29;20039;-61
2023/10/19 05:05:49;;;;;;;33.85;20.25;;;5.60;99.90;;;;;;4924888;29;20031;-62
2023/10/19 05:08:15;;;;;;;42.28;24.98;;;5.60;99.90;;;;;;4924652;29;20032;-60
2023/10/19 05:10:42;;;;;;;33.33;19.33;;;5.60;99.90;;;;;;4924824;29;20035;-61
2023/10/19 05:13:07;;;;;;;44.17;22.52;;;5.60;99.90;;;;;;4924616;29;20480;-61
2023/10/19 05:15:34;;;;;;;43.90;22.02;;;5.60;99.90;;;;;;4924580;29;20067;-61
2023/10/19 05:18:00;;;;;;;39.35;22.10;;;5.60;99.90;;;;;;4920644;29;20032;-61
2023/10/19 05:20:25;;;;;;;37.13;21.55;;;5.60;99.90;;;;;;4931146;29;20035;-62
2023/10/19 05:22:51;;;;;;;42.15;24.48;;;5.60;99.90;;;;;;4926188;29;20050;-61
2023/10/19 05:25:16;;;;;;;43.72;22.95;;;5.60;99.90;;;;;;4927333;29;20781;-61
2023/10/19 05:27:42;;;;;;;38.78;22.55;;;5.60;99.90;;;;;;4931046;28;20673;-61
2023/10/19 05:30:11;;;;;;;42.08;23.40;;;5.60;99.90;;;;;;4927895;29;20079;-62
2023/10/19 05:32:36;;;;;;;38.25;20.70;;;5.60;99.90;;;;;;4929782;29;20024;-61
2023/10/19 05:35:04;;;;;;;37.88;21.25;;;5.70;99.90;;;;;;4930921;28;20122;-61
2023/10/19 05:37:30;;;;;;;39.17;22.60;;;5.60;99.90;;;;;;4920135;29;20099;-61
2023/10/19 05:39:56;;;;;;;38.97;22.45;;;5.60;99.90;;;;;;4930826;28;20127;-66
2023/10/19 05:42:22;;;;;;;44.08;22.02;;;5.70;99.90;;;;;;4924344;29;20567;-65
2023/10/19 05:44:47;;;;;;;35.67;21.33;;;5.70;99.90;;;;;;4932065;28;20421;-66
2023/10/19 05:47:13;;;;;;;37.97;22.23;;;5.70;99.90;;;;;;4927573;28;20312;-66
2023/10/19 05:49:38;;;;;;;46.78;24.05;;;5.70;99.90;;;;;;4929817;29;20377;-66
2023/10/19 05:52:04;;;;;;;45.35;24.10;;;5.70;99.90;;;;;;4928532;29;20566;-66
2023/10/19 05:54:29;;;;;;;39.55;22.20;;;5.70;99.90;;;;;;4925172;29;20281;-66
2023/10/19 05:56:55;;;;;;;40.85;20.20;;;5.70;99.90;;;;;;4929184;29;20031;-66
2023/10/19 05:59:23;;;;;;;46.92;22.30;;;5.70;99.90;;;;;;4926216;29;20062;-65
2023/10/19 06:01:48;;;;;;;34.00;20.77;;;5.70;99.90;;;;;;4922758;28;20020;-65
2023/10/19 06:04:14;;;;;;;43.67;22.75;;;5.70;99.90;;;;;;4921983;29;20040;-65
2023/10/19 06:06:40;;;;;;;44.25;23.27;;;5.70;99.90;;;;;;4923879;29;20102;-66
2023/10/19 06:09:08;;;;;;;39.42;22.42;;;5.80;99.90;;;;;;4929213;28;20049;-65
2023/10/19 06:11:36;;;;;;;39.70;24.50;;;5.80;99.90;;;;;;4927304;28;20024;-65
2023/10/19 06:14:02;;;;;;;39.45;21.27;;;5.80;99.90;;;;;;4925277;29;20394;-65
2023/10/19 06:16:27;;;;;;;39.80;21.58;;;5.80;99.90;;;;;;4925639;29;20081;-66
2023/10/19 06:18:54;;;;;;;40.50;22.15;;;5.80;99.90;;;;;;4926650;29;20602;-66
2023/10/19 06:21:20;;;;;;;35.92;20.33;;;5.80;99.90;;;;;;4931285;28;20028;-66
2023/10/19 06:23:45;;;;;;;34.38;20.70;;;5.80;99.90;;;;;;4931907;28;20043;-66
2023/10/19 06:26:12;;;;;;;31.95;19.73;;;5.80;99.90;;;;;;4922382;29;20080;-66
2023/10/19 06:28:39;;;;;;;38.22;19.05;;;5.80;99.90;;;;;;4926488;29;20072;-66
2023/10/19 06:31:05;;;;;;;34.50;19.67;;;5.90;99.90;;;;;;4924769;29;20380;-65
2023/10/19 06:33:32;;;;;;;35.53;21.23;;;5.80;99.90;;;;;;4928143;28;20042;-66
2023/10/19 06:36:08;;;;;;;35.45;21.27;;;5.90;99.90;;;;;;5044480;28;20140;-64
2023/10/19 06:38:34;;;;;;;36.40;20.63;;;5.90;99.90;;;;;;5025071;28;20017;-64
2023/10/19 06:41:02;;;;;;;36.10;20.38;;;5.90;99.90;;;;;;5031490;28;20448;-64
2023/10/19 06:43:29;;;;;;;38.03;23.45;;;5.90;99.90;;;;;;5030884;28;20032;-64
2023/10/19 06:45:55;;;;;;;40.25;20.58;;;5.90;99.90;;;;;;5028418;28;20040;-65
2023/10/19 06:48:21;;;;;;;35.13;19.80;;;6.00;99.90;;;;;;5027960;28;20396;-65
2023/10/19 06:50:47;;;;;;;40.75;21.30;;;6.00;99.90;;;;;;5031051;28;20528;-65
2023/10/19 06:53:12;;;;;;;36.03;20.52;;;6.00;99.90;;;;;;5027356;28;20056;-65
2023/10/19 06:55:39;;;;;;;37.28;22.58;;;5.90;99.90;;;;;;5029064;28;20029;-65
2023/10/19 06:58:05;;;;;;;47.67;22.02;;;6.00;99.90;;;;;;5027890;28;20025;-65
2023/10/19 07:00:30;;;;;;;45.92;23.52;;;5.90;99.90;;;;;;5028093;28;20024;-65
2023/10/19 07:02:57;;;;;;;39.22;22.38;;;5.90;99.90;;;;;;5027998;28;20072;-65
2023/10/19 07:05:24;;;;;;;36.70;22.35;;;6.00;99.90;;;;;;5024753;28;20021;-65
2023/10/19 07:07:51;;;;;;;34.00;19.85;;;5.90;99.90;;;;;;5027245;28;20091;-66
2023/10/19 07:10:18;;;;;;;41.17;23.25;;;5.90;99.90;;;;;;5028211;28;20049;-66
2023/10/19 07:12:46;;;;;;;43.47;25.08;;;6.00;99.90;;;;;;5027322;28;20026;-67
2023/10/19 07:15:15;;;;;;;41.45;23.15;;;5.90;99.90;;;;;;5026294;28;20057;-67
2023/10/19 07:17:41;;;;;;;44.20;25.02;;;6.00;99.90;;;;;;5040946;28;20083;-65
2023/10/19 07:20:09;;;;;;;40.03;23.67;;;6.00;99.90;;;;;;5026667;28;20052;-64
2023/10/19 07:22:38;;;;;;;39.30;21.50;;;6.10;99.90;;;;;;5030521;28;20036;-64
2023/10/19 07:25:06;;;;;;;42.65;23.27;;;6.10;99.90;;;;;;5027481;28;20021;-64
2023/10/19 07:27:33;;;;;;;37.65;20.83;;;6.20;99.90;;;;;;5028668;28;20018;-65
2023/10/19 07:29:59;;;;;;;44.67;21.67;;;6.20;99.90;;;;;;5024810;28;20029;-64
2023/10/19 07:32:24;;;;;;;42.25;23.17;;;6.30;99.90;;;;;;5018817;28;20025;-65
2023/10/19 07:34:50;;;;;;;36.80;21.73;;;6.40;99.90;;;;;;5026044;28;20051;-65
2023/10/19 07:37:15;;;;;;;40.10;20.90;;;6.40;99.90;;;;;;5027975;28;20029;-66
2023/10/19 07:39:47;;;;;;;40.00;22.92;;;6.40;99.90;;;;;;5026422;28;20052;-65
2023/10/19 07:42:14;;;;;;;39.80;21.42;;;6.40;99.90;;;;;;5029716;28;20037;-66
2023/10/19 07:44:40;;;;;;;38.85;22.42;;;6.50;99.90;;;;;;5027522;28;20108;-65
2023/10/19 07:47:09;;;;;;;40.45;21.17;;;6.50;99.90;;;;;;5017625;28;20133;-66
2023/10/19 07:49:41;;;;;;;38.42;21.67;;;6.60;99.90;;;;;;5015182;28;20735;-66
2023/10/19 07:52:07;;;;;;;43.58;24.00;;;6.60;99.90;;;;;;5007941;28;20033;-65
2023/10/19 07:54:33;;;;;;;39.35;22.35;;;6.60;99.90;;;;;;5012724;28;20093;-67
2023/10/19 07:57:03;;;;;;;41.70;23.50;;;6.60;99.90;;;;;;5014203;28;20065;-66
2023/10/19 07:59:29;;;;;;;35.83;19.60;;;6.70;99.90;;;;;;5016401;28;20032;-66
2023/10/19 08:01:54;;;;;;;42.30;22.15;;;6.70;99.90;;;;;;5017042;28;20033;-65
2023/10/19 08:04:20;;;;;;;35.40;19.90;;;6.70;99.90;;;;;;5013727;28;20017;-66
2023/10/19 08:06:46;;;;;;;38.38;20.48;;;6.70;99.90;;;;;;5014736;28;20097;-66
2023/10/19 08:09:12;;;;;;;35.17;20.13;;;6.80;99.90;;;;;;5011728;28;20022;-66
2023/10/19 08:11:37;;;;;;;36.88;22.00;;;6.90;99.90;;;;;;5009955;28;20032;-66
2023/10/19 08:14:03;;;;;;;40.50;21.48;;;6.90;99.90;;;;;;5016141;28;20094;-66
2023/10/19 08:16:28;;;;;;;35.00;20.92;;;6.90;99.90;;;;;;5012617;28;20034;-67
2023/10/19 08:18:54;;;;;;;39.10;20.45;;;6.90;99.90;;;;;;5011018;28;20110;-66
2023/10/19 08:21:21;;;;;;;36.03;19.17;;;6.90;99.90;;;;;;5009833;28;20108;-65
2023/10/19 08:23:47;;;;;;;35.42;20.23;;;7.00;99.90;;;;;;5009993;28;20022;-66
2023/10/19 08:26:14;;;;;;;39.08;22.63;;;7.10;99.80;;;;;;5003389;28;20514;-66
2023/10/19 08:28:40;;;;;;;30.02;18.80;;;7.10;99.40;;;;;;5007289;28;20036;-66
2023/10/19 08:31:10;;;;;;;34.67;19.35;;;7.20;99.20;;;;;;5008290;28;20022;-66
2023/10/19 08:33:38;;;;;;;35.55;18.52;;;7.20;99.30;;;;;;5010962;28;20017;-66
2023/10/19 08:36:05;;;;;;;37.97;21.58;;;7.20;99.20;;;;;;5015567;28;20041;-65
2023/10/19 08:38:30;;;;;;;36.85;20.15;;;7.20;99.40;;;;;;5008938;28;20532;-65
2023/10/19 08:40:56;;;;;;;32.42;19.15;;;7.20;99.20;;;;;;5005173;28;20037;-64
2023/10/19 08:43:21;;;;;;;35.97;20.35;;;7.30;99.10;;;;;;5008045;28;20504;-65
2023/10/19 08:45:47;;;;;;;33.20;20.00;;;7.30;99.00;;;;;;5006644;28;20052;-65
2023/10/19 08:48:14;;;;;;;32.88;19.98;;;7.40;99.10;;;;;;5009857;28;20456;-64
2023/10/19 08:50:39;;;;;;;38.92;21.38;;;7.40;98.70;;;;;;5004886;28;20029;-66
2023/10/19 08:53:08;;;;;;;35.50;20.42;;;7.40;98.80;;;;;;5012839;28;20021;-65
2023/10/19 08:55:37;;;;;;;32.92;19.40;;;7.40;99.10;;;;;;5010108;28;20041;-64
2023/10/19 08:58:06;;;;;;;39.10;21.83;;;7.40;99.20;;;;;;5013840;28;20045;-67
2023/10/19 09:00:53;;;;;;;36.63;18.77;;;7.40;99.40;;;;;;5011618;28;20361;-65
2023/10/19 09:03:21;;;;;;;37.63;22.13;;;7.50;99.60;;;;;;5007856;28;20022;-65
2023/10/19 09:05:47;;;;;;;34.85;20.90;;;7.40;99.90;;;;;;5016322;28;20018;-65
2023/10/19 09:08:17;;;;;;;40.55;21.05;;;7.30;99.90;;;;;;5010615;28;20041;-68
2023/10/19 09:10:45;;;;;;;35.90;21.20;;;7.30;99.90;;;;;;5014165;28;20473;-66
2023/10/19 09:13:12;;;;;;;34.65;19.90;;;7.30;99.90;;;;;;5013416;28;20022;-67
2023/10/19 09:15:39;;;;;;;39.40;21.35;;;7.30;99.90;;;;;;5016005;28;20132;-66
2023/10/19 09:18:27;;;;;;;38.08;22.35;;;7.30;99.90;;;;;;5012467;28;20034;-66
2023/10/19 09:20:53;;;;;;;39.97;23.20;;;7.40;99.90;;;;;;5007180;28;20025;-65
2023/10/19 09:23:23;;;;;;;40.15;23.13;;;7.40;99.90;;;;;;5016196;28;20397;-65
2023/10/19 09:25:55;;;;;;;38.97;21.48;;;7.40;99.90;;;;;;5010737;28;20390;-66
2023/10/19 09:28:24;;;;;;;34.80;21.10;;;7.40;99.90;;;;;;5010988;28;20236;-65
2023/10/19 09:30:51;;;;;;;34.83;19.63;;;7.40;99.90;;;;;;5009523;28;20025;-66
2023/10/19 09:33:17;;;;;;;40.10;21.98;;;7.40;99.90;;;;;;5012506;28;20026;-66
2023/10/19 09:35:48;;;;;;;34.13;19.67;;;7.40;99.90;;;;;;5015404;28;20107;-62
2023/10/19 09:38:15;;;;;;;37.58;21.15;;;7.40;99.90;;;;;;5002361;28;20022;-65
2023/10/19 09:40:40;;;;;;;41.05;21.00;;;7.50;99.90;;;;;;5013595;28;20111;-66
2023/10/19 09:43:14;;;;;;;33.28;19.88;;;7.50;99.90;;;;;;5012739;28;20072;-66
2023/10/19 09:45:42;;;;;;;35.80;20.38;;;7.50;99.90;;;;;;5011424;28;20547;-66
2023/10/19 09:48:08;;;;;;;34.83;21.15;;;7.50;99.90;;;;;;5014139;28;20037;-66
2023/10/19 09:50:34;;;;;;;35.53;21.20;;;7.60;99.90;;;;;;5011989;28;20033;-65
2023/10/19 09:53:02;;;;;;;35.13;21.67;;;7.70;99.90;;;;;;5015613;28;20034;-65
2023/10/19 09:55:34;;;;;;;38.63;21.52;;;7.90;99.90;;;;;;5012641;28;20033;-65
2023/10/19 09:58:06;;;;;;;36.30;21.80;;;8.00;99.70;;;;;;5007723;28;20084;-65
2023/10/19 10:00:31;;;;;;;35.22;20.50;;;8.10;99.30;;;;;;5015335;28;20029;-66
2023/10/19 10:02:57;;;;;;;35.15;21.85;;;8.20;98.60;;;;;;5010264;28;20053;-65
2023/10/19 10:05:44;;;;;;;38.63;21.90;;;8.20;98.30;;;;;;5015337;28;20141;-66
2023/10/19 10:08:19;;;;;;;38.03;21.15;;;8.30;98.00;;;;;;5010175;28;20491;-66
2023/10/19 10:10:49;;;;;;;37.53;21.73;;;8.30;97.70;;;;;;5013755;28;20021;-66
2023/10/19 10:13:36;;;;;;;35.63;20.13;;;8.30;97.40;;;;;;5011661;28;20029;-66
2023/10/19 10:16:03;;;;;;;37.70;22.83;;;8.40;96.50;;;;;;5004892;28;20758;-65
2023/10/19 10:18:34;;;;;;;39.47;22.73;;;8.40;96.90;;;;;;5009996;28;20072;-66
2023/10/19 10:21:11;;;;;;;40.60;20.30;;;8.40;96.90;;;;;;5012831;28;20029;-65
2023/10/19 10:23:53;;;;;;;31.23;19.88;;;8.40;96.80;;;;;;5009050;28;20026;-65
2023/10/19 10:26:24;;;;;;;35.22;20.90;;;8.40;96.60;;;;;;5010534;28;20026;-65
2023/10/19 10:29:09;;;;;;;39.05;23.05;;;8.30;96.40;;;;;;5013855;28;20028;-66
2023/10/19 10:31:40;;;;;;;32.63;20.33;;;8.30;96.30;;;;;;5009870;28;20025;-66
2023/10/19 10:34:08;;;;;;;39.67;22.33;;;8.40;96.40;;;;;;5017557;28;20060;-65
2023/10/19 10:36:59;;;;;;;39.78;21.73;;;8.40;96.50;;;;;;5002369;28;20630;-66
2023/10/19 10:39:26;;;;;;;36.40;21.20;;;8.40;95.90;;;;;;5009106;28;20473;-65
2023/10/19 10:41:58;;;;;;;38.05;22.17;;;8.50;96.10;;;;;;5014352;28;20022;-65
2023/10/19 10:44:52;;;;;;;41.10;20.50;;;8.50;95.90;;;;;;5013542;28;20026;-65
2023/10/19 10:47:21;;;;;;;36.45;19.45;;;8.50;95.70;;;;;;5014175;28;20500;-78
2023/10/19 10:49:52;;;;;;;37.55;20.60;;;8.50;95.70;;;;;;5017111;28;20478;-78
2023/10/19 10:52:34;;;;;;;37.72;20.70;;;8.50;95.60;;;;;;5016297;28;20021;-77
2023/10/19 10:55:12;;;;;;;32.50;19.95;;;8.50;95.70;;;;;;5013378;28;20493;-77
2023/10/19 10:57:39;;;;;;;35.13;21.95;;;8.50;95.70;;;;;;5011038;28;20658;-78
2023/10/19 11:00:07;;;;;;;37.95;20.63;;;8.40;95.40;;;;;;5013843;28;20026;-78
2023/10/19 11:02:35;;;;;;;33.00;20.02;;;8.40;95.70;;;;;;5016236;28;20017;-77
2023/10/19 11:05:01;;;;;;;32.67;18.25;;;8.40;96.20;;;;;;5006753;28;20025;-78
2023/10/19 11:07:27;;;;;;;34.88;20.58;;;8.40;96.10;;;;;;5012294;28;20419;-77
2023/10/19 11:09:52;;;;;;;37.67;22.02;;;8.40;96.30;;;;;;5018801;28;20543;-78
2023/10/19 11:12:19;;;;;;;37.53;22.50;;;8.40;96.30;;;;;;5015069;28;20550;-77
2023/10/19 11:15:09;;;;;;;39.75;21.85;;;8.40;96.40;;;;;;5004526;28;20033;-78
2023/10/19 11:17:42;;;;;;;36.50;21.20;;;8.40;96.40;;;;;;5017021;28;20095;-77
2023/10/19 11:20:13;;;;;;;37.47;20.73;;;8.40;96.30;;;;;;5017292;28;20049;-77
2023/10/19 11:22:57;;;;;;;41.72;23.58;;;8.30;96.40;;;;;;5014170;28;20021;-78
2023/10/19 11:25:27;;;;;;;34.53;19.48;;;8.30;96.70;;;;;;5019010;28;20052;-77
2023/10/19 11:27:54;;;;;;;34.08;18.60;;;8.40;96.60;;;;;;5014828;28;20064;-76
2023/10/19 11:30:28;;;;;;;29.98;19.52;;;8.40;96.80;;;;;;5016142;28;20033;-77
2023/10/19 11:32:57;;;;;;;39.53;22.48;;;8.40;96.90;;;;;;5011765;28;20649;-76
2023/10/19 11:35:29;;;;;;;31.00;19.45;;;8.50;96.70;;;;;;5020308;28;20033;-77
2023/10/19 11:37:57;;;;;;;32.97;18.95;;;8.40;96.60;;;;;;5014893;28;20505;-79
2023/10/19 11:40:23;;;;;;;32.17;18.63;;;8.50;96.80;;;;;;5020440;28;20094;-79
2023/10/19 11:42:50;;;;;;;29.77;18.85;;;8.50;96.90;;;;;;5011568;28;20029;-64
2023/10/19 11:45:16;;;;;;;40.10;22.23;;;8.50;97.00;;;;;;5020320;28;20025;-65
2023/10/19 11:47:42;;;;;;;33.35;19.02;;;8.50;96.90;;;;;;5014504;28;20500;-64
2023/10/19 11:50:08;;;;;;;29.10;19.23;;;8.50;96.70;;;;;;5015808;28;20091;-65
2023/10/19 11:52:34;;;;;;;35.10;20.95;;;8.60;96.80;;;;;;5017211;28;20059;-64
2023/10/19 11:54:59;;;;;;;33.58;18.90;;;8.60;96.60;;;;;;5013534;28;20128;-64
2023/10/19 11:57:25;;;;;;;27.55;17.63;;;8.60;96.70;;;;;;5014068;28;20034;-64
2023/10/19 11:59:53;;;;;;;30.77;17.02;;;8.60;96.70;;;;;;5020023;28;20025;-65
2023/10/19 12:02:19;;;;;;;35.55;19.25;;;8.60;96.80;;;;;;5008228;28;20025;-65
2023/10/19 12:04:45;;;;;;;34.67;19.85;;;8.70;96.70;;;;;;5015125;28;20056;-65
2023/10/19 12:07:11;;;;;;;36.72;21.50;;;8.70;96.00;;;;;;5017103;28;20079;-64
2023/10/19 12:09:37;;;;;;;35.42;20.77;;;8.60;96.00;;;;;;5014163;28;20109;-65
2023/10/19 12:12:05;;;;;;;34.55;20.48;;;8.60;96.30;;;;;;5017455;28;20148;-64
2023/10/19 12:14:34;;;;;;;33.92;19.70;;;8.50;96.30;;;;;;5013611;28;20021;-64
2023/10/19 12:17:01;;;;;;;34.88;21.10;;;8.50;96.50;;;;;;5013820;28;20093;-64
2023/10/19 12:19:29;;;;;;;36.03;20.02;;;8.50;96.50;;;;;;5019750;28;20033;-64
2023/10/19 12:21:55;;;;;;;28.85;18.40;;;8.50;96.70;;;;;;5011799;28;20040;-65
2023/10/19 12:24:21;;;;;;;37.47;19.75;;;8.50;96.80;;;;;;5019429;28;20022;-65
2023/10/19 12:26:46;;;;;;;36.63;20.75;;;8.60;96.70;;;;;;5017977;28;20919;-64
2023/10/19 12:29:14;;;;;;;32.22;19.98;;;8.60;96.50;;;;;;5012440;28;20114;-65
2023/10/19 12:31:40;;;;;;;32.65;18.08;;;8.60;96.40;;;;;;5013033;28;20026;-64
2023/10/19 12:34:07;;;;;;;35.92;21.33;;;8.60;96.40;;;;;;5013291;28;20046;-66
2023/10/19 12:36:34;;;;;;;39.53;21.90;;;8.60;96.20;;;;;;5011872;28;20009;-64
2023/10/19 12:39:00;;;;;;;32.50;20.90;;;8.60;96.30;;;;;;5015490;28;20025;-64
2023/10/19 12:41:27;;;;;;;29.48;17.95;;;8.60;96.30;;;;;;5013053;28;20030;-65
2023/10/19 12:43:57;;;;;;;33.17;19.15;;;8.50;96.70;;;;;;5015504;28;20128;-64
2023/10/19 12:46:27;;;;;;;36.28;20.95;;;8.50;96.80;;;;;;4997512;28;20033;-63
2023/10/19 12:48:55;;;;;;;34.88;19.85;;;8.50;97.40;;;;;;5007013;28;20121;-64
2023/10/19 12:51:24;;;;;;;40.05;21.88;;;8.40;97.70;;;;;;5003243;28;20494;-63
2023/10/19 12:53:51;;;;;;;32.92;20.75;;;8.40;98.20;;;;;;5008734;28;20030;-62